Time;durP1;ratioP1;P1;durP2;ratioP2;P2;SDS_P1;SDS_P2;PMS_P1;PMS_P2;Temp;Humidity;BMP_temperature;BMP_pressure;BME280_temperature;BME280_humidity;BME280_pressure;Samples;Min_cycle;Max_cycle;Signal;HPM_P1;HPM_P2
2023/01/16 00:00:55;;;;;;;48.00;35.10;;;8.20;98.90;;;;;;5073328;28;20142;-66
2023/01/16 00:03:21;;;;;;;42.53;31.08;;;8.10;98.70;;;;;;5073316;28;20021;-65
2023/01/16 00:05:47;;;;;;;43.38;30.30;;;8.10;99.10;;;;;;5073096;28;20025;-64
2023/01/16 00:08:14;;;;;;;40.55;29.15;;;8.20;99.00;;;;;;5073180;28;20024;-63
2023/01/16 00:10:40;;;;;;;45.88;32.20;;;8.30;99.10;;;;;;5073126;28;20025;-67
2023/01/16 00:13:06;;;;;;;49.38;33.30;;;8.30;99.50;;;;;;5072993;28;20017;-65
2023/01/16 00:15:32;;;;;;;40.03;28.95;;;8.30;99.50;;;;;;5073085;28;20056;-65
2023/01/16 00:17:58;;;;;;;44.00;29.35;;;8.30;99.70;;;;;;5073058;28;20052;-62
2023/01/16 00:20:24;;;;;;;40.70;28.67;;;8.30;99.50;;;;;;5073074;28;20060;-61
2023/01/16 00:22:50;;;;;;;37.33;28.73;;;8.30;99.70;;;;;;5073442;28;20102;-66
2023/01/16 00:25:16;;;;;;;38.35;28.70;;;8.30;99.90;;;;;;5073137;28;20468;-60
2023/01/16 00:27:41;;;;;;;44.53;31.52;;;8.30;99.90;;;;;;5073116;28;20016;-68
2023/01/16 00:30:08;;;;;;;43.28;32.90;;;8.30;99.90;;;;;;5072923;28;20105;-62
2023/01/16 00:32:34;;;;;;;48.25;36.20;;;8.20;99.90;;;;;;5075983;28;20028;-68
2023/01/16 00:34:59;;;;;;;46.55;34.72;;;8.20;99.90;;;;;;5076936;28;20034;-71
2023/01/16 00:37:25;;;;;;;45.95;32.67;;;8.20;99.90;;;;;;5076683;28;20068;-65
2023/01/16 00:39:54;;;;;;;45.13;31.50;;;8.20;99.90;;;;;;5076734;28;20471;-60
2023/01/16 00:42:19;;;;;;;46.70;32.47;;;8.30;99.90;;;;;;5076657;28;20031;-68
2023/01/16 00:44:45;;;;;;;45.42;32.72;;;8.30;99.90;;;;;;5076639;28;20099;-65
2023/01/16 00:47:11;;;;;;;41.85;30.80;;;8.40;99.90;;;;;;5076386;28;20021;-65
2023/01/16 00:49:36;;;;;;;50.40;32.85;;;8.30;99.90;;;;;;5076302;28;20561;-67
2023/01/16 00:52:03;;;;;;;44.90;31.55;;;8.40;99.90;;;;;;5076427;28;20047;-68
2023/01/16 00:54:28;;;;;;;48.45;32.55;;;8.40;99.90;;;;;;5076598;28;20035;-68
2023/01/16 00:56:54;;;;;;;40.88;29.65;;;8.40;99.90;;;;;;5076474;28;20420;-66
2023/01/16 00:59:20;;;;;;;43.75;29.17;;;8.40;99.90;;;;;;5076547;28;20029;-73
2023/01/16 01:01:45;;;;;;;39.40;29.38;;;8.30;99.90;;;;;;5075959;28;20067;-63
2023/01/16 01:04:12;;;;;;;36.67;27.42;;;8.30;99.90;;;;;;5076297;28;20100;-66
2023/01/16 01:06:39;;;;;;;42.45;30.27;;;8.40;99.90;;;;;;5076292;28;20020;-67
2023/01/16 01:09:04;;;;;;;38.42;26.50;;;8.40;99.90;;;;;;5076501;28;20025;-59
2023/01/16 01:11:30;;;;;;;36.53;26.80;;;8.40;99.90;;;;;;5076252;28;20025;-68
2023/01/16 01:13:56;;;;;;;35.30;27.08;;;8.40;99.90;;;;;;5076247;28;20020;-64
2023/01/16 01:16:22;;;;;;;42.10;29.20;;;8.40;99.90;;;;;;5075752;28;20529;-65
2023/01/16 01:18:48;;;;;;;43.33;29.80;;;8.40;99.90;;;;;;5075954;28;20154;-69
2023/01/16 01:21:14;;;;;;;38.90;28.65;;;8.50;99.90;;;;;;5076221;28;20107;-63
2023/01/16 01:23:40;;;;;;;41.25;30.20;;;8.50;99.90;;;;;;5076056;28;20048;-61
2023/01/16 01:26:12;;;;;;;35.40;26.65;;;8.50;99.90;;;;;;5076209;28;20438;-62
2023/01/16 01:28:37;;;;;;;39.08;28.35;;;8.40;99.90;;;;;;5076164;28;20470;-62
2023/01/16 01:31:08;;;;;;;43.30;30.48;;;8.40;99.90;;;;;;5075394;28;20028;-67
2023/01/16 01:33:34;;;;;;;55.00;37.28;;;8.30;99.90;;;;;;5075800;28;20028;-60
2023/01/16 01:36:01;;;;;;;41.85;32.15;;;8.30;99.90;;;;;;5076063;28;20048;-71
2023/01/16 01:38:27;;;;;;;50.35;34.42;;;8.20;99.90;;;;;;5075511;28;20107;-68
2023/01/16 01:40:53;;;;;;;38.70;29.85;;;8.20;99.90;;;;;;5075909;28;20086;-63
2023/01/16 01:43:18;;;;;;;41.78;29.17;;;8.20;99.90;;;;;;5075312;28;20028;-68
2023/01/16 01:45:52;;;;;;;40.20;29.00;;;8.20;99.90;;;;;;5075264;28;20048;-67
2023/01/16 01:48:40;;;;;;;46.70;31.98;;;8.30;99.90;;;;;;5075325;28;20045;-65
2023/01/16 01:51:10;;;;;;;41.33;29.42;;;8.30;99.90;;;;;;5075284;28;20031;-66
2023/01/16 01:53:46;;;;;;;41.30;29.85;;;8.30;99.90;;;;;;5075648;28;20108;-69
2023/01/16 01:56:18;;;;;;;46.42;31.77;;;8.30;99.90;;;;;;5075303;28;20059;-64
2023/01/16 01:58:47;;;;;;;49.25;34.35;;;8.30;99.90;;;;;;5075258;28;20025;-67
2023/01/16 02:01:13;;;;;;;45.03;29.17;;;8.30;99.90;;;;;;5075276;28;20023;-64
2023/01/16 02:03:45;;;;;;;51.67;33.50;;;8.30;99.90;;;;;;5075096;28;20028;-60
2023/01/16 02:06:19;;;;;;;44.72;32.33;;;8.30;99.90;;;;;;5075133;28;20020;-66
2023/01/16 02:08:46;;;;;;;43.88;29.58;;;8.30;99.90;;;;;;5075479;28;20021;-67
2023/01/16 02:11:27;;;;;;;43.10;30.00;;;8.20;99.90;;;;;;5074883;28;20055;-60
2023/01/16 02:13:57;;;;;;;47.80;32.95;;;8.30;99.90;;;;;;5074693;28;20103;-61
2023/01/16 02:19:37;;;;;;;38.53;27.40;;;8.20;99.90;;;;;;5075031;28;20032;-64
2023/01/16 02:22:08;;;;;;;35.45;26.52;;;8.20;99.90;;;;;;5072494;28;20036;-62
2023/01/16 02:24:52;;;;;;;43.30;30.50;;;8.20;99.90;;;;;;5074795;28;20021;-65
2023/01/16 02:27:44;;;;;;;30.52;23.45;;;8.20;99.90;;;;;;5074751;28;20067;-61
2023/01/16 02:30:28;;;;;;;38.00;26.67;;;8.20;99.90;;;;;;5074544;28;20484;-67
2023/01/16 02:33:33;;;;;;;38.88;27.08;;;8.20;99.90;;;;;;5074609;28;20035;-64
2023/01/16 02:36:09;;;;;;;;;;;8.30;99.90;;;;;;5075045;28;20027;-70
2023/01/16 02:39:08;;;;;;;37.75;25.38;;;8.20;99.90;;;;;;5074327;28;19991;-66
2023/01/16 02:41:44;;;;;;;29.08;22.15;;;8.30;99.90;;;;;;5074337;28;20035;-65
2023/01/16 02:44:30;;;;;;;30.00;21.02;;;8.30;99.90;;;;;;5074152;28;20048;-63
2023/01/16 02:47:11;;;;;;;30.48;22.08;;;8.30;99.90;;;;;;5070073;28;20074;-66
2023/01/16 02:49:37;;;;;;;28.38;21.73;;;8.30;99.90;;;;;;5074007;28;20473;-69
2023/01/16 02:52:39;;;;;;;34.15;23.13;;;8.30;99.90;;;;;;5074083;28;20056;-61
2023/01/16 02:55:23;;;;;;;39.28;27.10;;;8.30;99.90;;;;;;5073533;28;20074;-62
2023/01/16 02:57:55;;;;;;;37.25;25.33;;;8.30;99.90;;;;;;5074185;28;20510;-63
2023/01/16 03:00:21;;;;;;;40.65;30.17;;;8.20;99.90;;;;;;5073970;28;20528;-69
2023/01/16 03:02:47;;;;;;;35.78;26.88;;;8.10;99.90;;;;;;5074209;28;20032;-59
2023/01/16 03:05:13;;;;;;;33.28;24.60;;;8.00;99.90;;;;;;5073832;28;20360;-61
2023/01/16 03:08:12;;;;;;;33.88;24.13;;;8.00;99.90;;;;;;5073942;28;20017;-68
2023/01/16 03:10:56;;;;;;;35.88;25.65;;;8.10;99.90;;;;;;5073941;28;20025;-64
2023/01/16 03:13:34;;;;;;;40.63;29.73;;;8.10;99.90;;;;;;5073670;28;20474;-64
2023/01/16 03:16:28;;;;;;;31.17;22.83;;;8.00;99.90;;;;;;5073694;28;20485;-64
2023/01/16 03:18:57;;;;;;;36.80;26.90;;;7.90;99.90;;;;;;5073814;28;20071;-69
2023/01/16 03:21:38;;;;;;;30.73;22.45;;;7.90;99.90;;;;;;5073696;28;20097;-66
2023/01/16 03:24:19;;;;;;;32.03;23.52;;;7.80;99.90;;;;;;5073666;28;20025;-68
2023/01/16 03:26:52;;;;;;;28.80;21.67;;;7.80;99.90;;;;;;5073519;28;20020;-68
2023/01/16 03:29:29;;;;;;;26.33;21.23;;;7.80;99.90;;;;;;5073674;28;20025;-65
2023/01/16 03:32:36;;;;;;;24.15;18.67;;;7.80;99.90;;;;;;5073652;28;20028;-61
2023/01/16 03:35:19;;;;;;;22.85;17.48;;;7.70;99.90;;;;;;5073232;28;20032;-65
2023/01/16 03:37:51;;;;;;;23.85;18.15;;;7.70;99.90;;;;;;5073643;28;20017;-69
2023/01/16 03:40:26;;;;;;;22.38;17.55;;;7.70;99.90;;;;;;5073290;28;20398;-69
2023/01/16 03:42:55;;;;;;;26.95;19.00;;;7.70;99.90;;;;;;5073570;28;20047;-62
2023/01/16 03:45:28;;;;;;;23.70;17.45;;;7.70;99.90;;;;;;5073531;28;20025;-68
2023/01/16 03:48:03;;;;;;;21.97;17.10;;;7.70;99.90;;;;;;5073040;28;20086;-68
2023/01/16 03:50:30;;;;;;;19.40;15.52;;;7.60;99.90;;;;;;5073607;28;20250;-67
2023/01/16 03:53:07;;;;;;;20.38;15.50;;;7.60;99.90;;;;;;5073451;28;20375;-66
2023/01/16 03:55:43;;;;;;;22.33;15.90;;;7.60;99.90;;;;;;5073302;28;20100;-69
2023/01/16 03:58:21;;;;;;;20.42;14.98;;;7.60;99.90;;;;;;5073475;28;20074;-67
2023/01/16 04:01:09;;;;;;;18.25;13.55;;;7.60;99.90;;;;;;5073433;28;20447;-63
2023/01/16 04:03:43;;;;;;;22.23;16.17;;;7.60;99.90;;;;;;5073228;28;20013;-65
2023/01/16 04:06:25;;;;;;;25.45;17.83;;;7.60;99.90;;;;;;5076098;28;20023;-70
2023/01/16 04:08:52;;;;;;;20.50;16.23;;;7.50;99.90;;;;;;5077355;28;20020;-63
2023/01/16 04:11:20;;;;;;;20.48;15.50;;;7.50;99.90;;;;;;5077110;28;20016;-69
2023/01/16 04:13:49;;;;;;;18.98;14.57;;;7.50;99.90;;;;;;5077859;28;20052;-63
2023/01/16 04:16:18;;;;;;;23.42;18.50;;;7.40;99.90;;;;;;5077443;28;20100;-62
2023/01/16 04:18:45;;;;;;;21.48;16.73;;;7.40;99.90;;;;;;5077025;28;20028;-71
2023/01/16 04:21:12;;;;;;;22.23;17.50;;;7.40;99.90;;;;;;5077058;28;20027;-69
2023/01/16 04:23:37;;;;;;;18.45;15.15;;;7.40;99.90;;;;;;5077006;28;20025;-69
2023/01/16 04:26:03;;;;;;;19.75;15.35;;;7.30;99.90;;;;;;5077022;28;20070;-59
2023/01/16 04:28:29;;;;;;;17.17;14.60;;;7.30;99.90;;;;;;5077165;28;20027;-63
2023/01/16 04:30:55;;;;;;;19.08;14.90;;;7.30;99.90;;;;;;5076951;28;20099;-63
2023/01/16 04:33:21;;;;;;;18.20;13.73;;;7.40;99.90;;;;;;5077076;28;20024;-66
2023/01/16 04:35:46;;;;;;;18.58;13.90;;;7.40;99.90;;;;;;5076846;28;20024;-65
2023/01/16 04:38:12;;;;;;;23.08;17.30;;;7.30;99.90;;;;;;5076847;28;20042;-65
2023/01/16 04:40:38;;;;;;;19.40;15.25;;;7.40;99.90;;;;;;5076911;28;20052;-64
2023/01/16 04:43:04;;;;;;;25.38;19.25;;;7.30;99.90;;;;;;5076807;28;20025;-62
2023/01/16 04:45:30;;;;;;;19.42;14.77;;;7.20;99.90;;;;;;5076684;28;20549;-66
2023/01/16 04:47:55;;;;;;;18.10;14.10;;;7.20;99.90;;;;;;5076238;28;20017;-67
2023/01/16 04:50:21;;;;;;;15.60;13.10;;;7.20;99.90;;;;;;5076607;28;20110;-70
2023/01/16 04:52:47;;;;;;;17.58;13.52;;;7.20;99.90;;;;;;5076357;28;20073;-67
2023/01/16 04:55:13;;;;;;;19.55;15.20;;;7.20;99.90;;;;;;5076371;28;20382;-63
2023/01/16 04:57:39;;;;;;;18.65;14.18;;;7.20;99.90;;;;;;5076655;28;20032;-67
2023/01/16 05:00:06;;;;;;;15.88;12.90;;;7.20;99.90;;;;;;5076313;28;20034;-67
2023/01/16 05:02:32;;;;;;;14.00;11.65;;;7.20;99.90;;;;;;5076444;28;20449;-63
2023/01/16 05:04:58;;;;;;;17.70;12.60;;;7.20;99.90;;;;;;5076463;28;20047;-62
2023/01/16 05:07:26;;;;;;;14.65;11.13;;;7.30;99.90;;;;;;5076016;28;20025;-63
2023/01/16 05:09:52;;;;;;;13.55;9.82;;;7.30;99.90;;;;;;5076416;28;20032;-61
2023/01/16 05:12:17;;;;;;;12.93;10.32;;;7.30;99.90;;;;;;5076471;28;20043;-62
2023/01/16 05:14:43;;;;;;;13.52;10.57;;;7.30;99.90;;;;;;5076401;28;20095;-68
2023/01/16 05:17:09;;;;;;;15.90;11.35;;;7.30;99.90;;;;;;5075441;28;20029;-59
2023/01/16 05:19:34;;;;;;;15.23;12.07;;;7.30;99.90;;;;;;5075943;28;20479;-67
2023/01/16 05:22:00;;;;;;;14.52;11.02;;;7.40;99.90;;;;;;5075897;28;20024;-72
2023/01/16 05:24:26;;;;;;;14.57;11.00;;;7.40;99.90;;;;;;5076017;28;20024;-66
2023/01/16 05:26:52;;;;;;;13.55;10.68;;;7.40;99.90;;;;;;5075730;28;20028;-64
2023/01/16 05:29:17;;;;;;;19.45;12.65;;;7.40;99.90;;;;;;5076051;28;20477;-60
2023/01/16 05:31:43;;;;;;;13.35;10.95;;;7.40;99.90;;;;;;5075880;28;20387;-63
2023/01/16 05:34:09;;;;;;;26.55;16.27;;;7.30;99.90;;;;;;5075699;28;20020;-62
2023/01/16 05:36:35;;;;;;;18.15;13.68;;;7.20;99.90;;;;;;5075878;28;20026;-64
2023/01/16 05:39:01;;;;;;;17.88;12.43;;;7.10;99.90;;;;;;5075587;28;20486;-63
2023/01/16 05:41:26;;;;;;;15.55;11.90;;;7.20;99.90;;;;;;5075637;28;20029;-65
2023/01/16 05:43:52;;;;;;;21.67;16.45;;;7.20;99.90;;;;;;5075574;28;20029;-65
2023/01/16 05:46:18;;;;;;;16.98;13.38;;;7.30;99.90;;;;;;5075597;28;20050;-64
2023/01/16 05:48:44;;;;;;;19.27;13.07;;;7.30;99.90;;;;;;5075359;28;20410;-62
2023/01/16 05:51:11;;;;;;;14.48;11.05;;;7.30;99.90;;;;;;5075448;28;20032;-68
2023/01/16 05:53:37;;;;;;;22.92;14.95;;;7.30;99.90;;;;;;5075484;28;20028;-63
2023/01/16 05:56:10;;;;;;;15.95;12.10;;;7.20;99.90;;;;;;5075610;28;20410;-68
2023/01/16 05:58:36;;;;;;;15.45;12.30;;;7.10;99.90;;;;;;5075528;28;20385;-69
2023/01/16 06:01:02;;;;;;;17.50;12.82;;;7.20;99.90;;;;;;5074595;28;20029;-67
2023/01/16 06:03:28;;;;;;;17.90;12.23;;;7.20;99.90;;;;;;5074691;28;20032;-60
2023/01/16 06:05:54;;;;;;;18.48;12.52;;;7.30;99.90;;;;;;5073718;28;20054;-62
2023/01/16 06:08:20;;;;;;;41.45;23.48;;;7.30;99.90;;;;;;5075189;28;20505;-65
2023/01/16 06:10:45;;;;;;;30.50;19.10;;;7.30;99.90;;;;;;5073836;28;20036;-61
2023/01/16 06:13:11;;;;;;;35.38;22.58;;;7.20;99.90;;;;;;5074983;28;20110;-64
2023/01/16 06:15:37;;;;;;;38.05;23.58;;;7.30;99.90;;;;;;5074934;28;20089;-69
2023/01/16 06:18:03;;;;;;;53.35;31.05;;;7.20;99.90;;;;;;5074920;28;20036;-63
2023/01/16 06:20:29;;;;;;;42.53;27.58;;;7.10;99.90;;;;;;5074478;28;20163;-68
2023/01/16 06:22:54;;;;;;;46.80;28.42;;;7.20;99.90;;;;;;5074900;28;20028;-65
2023/01/16 06:25:20;;;;;;;43.25;26.60;;;7.20;99.90;;;;;;5074695;28;20027;-64
2023/01/16 06:27:50;;;;;;;42.22;25.98;;;7.10;99.90;;;;;;5074447;28;20024;-64
2023/01/16 06:30:17;;;;;;;39.25;25.85;;;7.10;99.90;;;;;;5073856;28;20099;-64
2023/01/16 06:32:44;;;;;;;26.40;17.27;;;7.20;99.90;;;;;;5074860;28;20024;-69
2023/01/16 06:35:10;;;;;;;34.75;21.98;;;7.40;99.90;;;;;;5074511;28;20052;-64
2023/01/16 06:37:36;;;;;;;30.15;20.23;;;7.50;99.90;;;;;;5074357;28;20482;-67
2023/01/16 06:40:01;;;;;;;26.85;18.42;;;7.50;99.90;;;;;;5072867;28;20032;-71
2023/01/16 06:42:27;;;;;;;26.70;17.88;;;7.50;99.90;;;;;;5074096;28;20021;-64
2023/01/16 06:44:53;;;;;;;27.00;17.58;;;7.60;99.90;;;;;;5074158;28;20051;-65
2023/01/16 06:47:20;;;;;;;27.23;18.33;;;7.60;99.90;;;;;;5074065;28;20051;-69
2023/01/16 06:49:46;;;;;;;26.85;16.92;;;7.60;99.90;;;;;;5072157;28;20045;-62
2023/01/16 06:52:11;;;;;;;27.77;17.50;;;7.60;99.90;;;;;;5073050;28;20019;-65
2023/01/16 06:54:37;;;;;;;22.63;15.52;;;7.60;99.90;;;;;;5072962;28;20059;-69
2023/01/16 06:57:03;;;;;;;29.17;20.42;;;7.60;99.90;;;;;;5072955;28;20016;-64
2023/01/16 06:59:28;;;;;;;37.65;25.15;;;7.60;99.90;;;;;;5072324;28;20091;-68
2023/01/16 07:01:54;;;;;;;38.05;25.20;;;7.60;99.90;;;;;;5072673;28;20016;-64
2023/01/16 07:04:20;;;;;;;33.22;23.35;;;7.50;99.90;;;;;;5072704;28;20091;-67
2023/01/16 07:06:48;;;;;;;28.70;21.15;;;7.50;99.90;;;;;;5073326;28;20494;-63
2023/01/16 07:09:14;;;;;;;27.05;19.50;;;7.60;99.90;;;;;;5073251;28;20024;-68
2023/01/16 07:11:40;;;;;;;29.83;19.77;;;7.70;99.90;;;;;;5073832;28;20099;-70
2023/01/16 07:22:35;;;;;;;26.38;18.95;;;7.70;99.90;;;;;;5068046;28;20078;-63
2023/01/16 07:25:03;;;;;;;28.45;19.65;;;7.70;99.90;;;;;;5073896;28;20024;-65
2023/01/16 07:27:30;;;;;;;30.58;23.17;;;7.80;99.90;;;;;;5073457;28;20066;-65
2023/01/16 07:29:55;;;;;;;26.67;18.95;;;7.80;99.90;;;;;;5073330;28;20021;-66
2023/01/16 07:32:22;;;;;;;25.90;19.33;;;7.80;99.90;;;;;;5073560;28;20023;-66
2023/01/16 07:34:47;;;;;;;29.42;20.92;;;7.90;99.90;;;;;;5073452;28;20073;-63
2023/01/16 07:37:13;;;;;;;31.42;21.25;;;7.90;99.90;;;;;;5073402;28;20025;-69
2023/01/16 07:39:39;;;;;;;31.52;22.08;;;8.00;99.90;;;;;;5073269;28;20060;-68
2023/01/16 07:42:06;;;;;;;33.72;23.85;;;8.00;99.90;;;;;;5073457;28;20471;-66
2023/01/16 07:44:32;;;;;;;33.38;24.45;;;8.10;99.90;;;;;;5073434;28;20466;-65
2023/01/16 07:46:57;;;;;;;51.00;33.85;;;8.10;99.90;;;;;;5073127;28;20028;-60
2023/01/16 07:49:23;;;;;;;37.70;27.73;;;8.10;99.90;;;;;;5073107;28;20049;-67
2023/01/16 07:51:50;;;;;;;37.85;26.08;;;8.00;99.90;;;;;;5073626;28;20048;-67
2023/01/16 07:54:16;;;;;;;40.65;27.85;;;8.00;99.90;;;;;;5073178;28;20027;-68
2023/01/16 07:56:41;;;;;;;37.15;26.15;;;8.10;99.90;;;;;;5073405;28;20059;-69
2023/01/16 07:59:07;;;;;;;44.97;31.25;;;8.10;99.90;;;;;;5073209;28;20028;-59
2023/01/16 08:01:34;;;;;;;69.10;46.45;;;8.20;99.90;;;;;;5072887;28;20024;-62
2023/01/16 08:03:59;;;;;;;57.47;39.83;;;8.20;99.90;;;;;;5073313;28;20367;-64
2023/01/16 08:06:25;;;;;;;60.88;42.95;;;8.30;99.90;;;;;;5073357;28;20017;-63
2023/01/16 08:08:51;;;;;;;97.05;59.33;;;8.30;99.90;;;;;;5073566;28;20477;-69
2023/01/16 08:11:35;;;;;;;70.75;47.95;;;8.40;99.90;;;;;;5073133;28;20085;-68
2023/01/16 08:14:05;;;;;;;195.38;102.00;;;8.50;99.90;;;;;;5073437;28;20520;-60
2023/01/16 08:16:30;;;;;;;109.47;67.00;;;8.50;99.90;;;;;;5072938;28;20024;-66
2023/01/16 08:18:56;;;;;;;85.45;54.63;;;8.60;99.90;;;;;;5073252;28;20038;-66
2023/01/16 08:21:22;;;;;;;146.10;83.88;;;8.60;99.90;;;;;;5072944;28;20489;-65
2023/01/16 08:23:48;;;;;;;149.02;84.55;;;8.60;99.90;;;;;;5072829;28;20028;-66
2023/01/16 08:26:14;;;;;;;92.32;58.17;;;8.60;99.90;;;;;;5072964;28;20463;-66
2023/01/16 08:28:40;;;;;;;62.30;43.28;;;8.70;99.90;;;;;;5072935;28;20017;-66
2023/01/16 08:31:08;;;;;;;48.05;31.98;;;8.60;99.90;;;;;;5072610;28;20485;-63
2023/01/16 08:33:35;;;;;;;24.52;16.95;;;8.50;99.90;;;;;;5073200;28;20032;-68
2023/01/16 08:36:03;;;;;;;26.30;19.90;;;8.70;99.50;;;;;;5072847;28;20021;-65
2023/01/16 08:38:29;;;;;;;14.95;12.23;;;8.90;99.40;;;;;;5072616;28;20051;-67
2023/01/16 08:40:54;;;;;;;32.63;23.38;;;9.10;97.60;;;;;;5072906;28;20032;-64
2023/01/16 08:51:38;;;;;;;;;;;9.40;97.10;;;;;;5071816;28;20051;-67
2023/01/16 08:54:04;;;;;;;20.33;15.80;;;9.60;97.20;;;;;;5075362;28;19904;-66
2023/01/16 08:56:29;;;;;;;21.52;16.08;;;9.70;97.20;;;;;;5075534;28;20031;-65
2023/01/16 08:58:55;;;;;;;24.25;19.00;;;9.90;97.90;;;;;;5075709;28;20035;-59
2023/01/16 09:01:21;;;;;;;27.95;21.30;;;10.00;97.30;;;;;;5075566;28;20017;-63
2023/01/16 09:03:46;;;;;;;26.65;21.38;;;10.00;96.60;;;;;;5075922;28;20021;-68
2023/01/16 09:06:12;;;;;;;25.35;19.63;;;10.00;95.40;;;;;;5076053;28;20364;-63
2023/01/16 09:08:38;;;;;;;21.40;17.73;;;10.00;95.40;;;;;;5076002;28;20029;-66
2023/01/16 09:14:05;;;;;;;18.23;13.90;;;10.00;94.00;;;;;;5030562;28;20051;-64
2023/01/16 09:16:30;;;;;;;16.70;13.05;;;10.10;94.10;;;;;;5065243;28;20123;-68
2023/01/16 09:18:56;;;;;;;17.27;13.30;;;10.20;93.90;;;;;;5073868;28;20060;-64
2023/01/16 09:21:24;;;;;;;17.30;12.27;;;10.30;93.70;;;;;;5073271;28;20021;-67
2023/01/16 09:23:50;;;;;;;17.45;13.43;;;10.40;93.10;;;;;;5074251;28;20060;-65
2023/01/16 09:26:16;;;;;;;15.40;11.85;;;10.40;93.00;;;;;;5075915;28;20363;-65
2023/01/16 09:28:42;;;;;;;15.35;12.02;;;10.60;92.90;;;;;;5075355;28;20021;-64
2023/01/16 09:31:08;;;;;;;12.10;9.57;;;10.70;93.40;;;;;;5075435;28;20054;-68
2023/01/16 09:33:34;;;;;;;30.33;19.65;;;10.90;93.70;;;;;;5074530;28;20076;-62
2023/01/16 09:36:00;;;;;;;42.78;29.08;;;11.10;92.80;;;;;;5075834;28;20107;-70
2023/01/16 09:38:27;;;;;;;34.10;24.08;;;11.20;93.40;;;;;;5075480;28;20021;-67
2023/01/16 09:40:56;;;;;;;29.48;22.40;;;11.40;93.50;;;;;;5075536;28;20040;-65
2023/01/16 09:43:40;;;;;;;29.73;22.98;;;11.60;94.30;;;;;;5075002;28;20017;-64
2023/01/16 09:46:15;;;;;;;22.95;17.42;;;11.70;96.60;;;;;;5074813;28;20463;-70
2023/01/16 09:48:50;;;;;;;25.27;18.88;;;12.00;94.90;;;;;;5075068;28;20040;-70
2023/01/16 09:51:21;;;;;;;21.70;17.48;;;12.10;95.00;;;;;;5075271;28;20032;-67
2023/01/16 09:59:45;;;;;;;29.33;22.83;;;12.50;92.40;;;;;;5075140;28;20440;-67
2023/01/16 10:02:27;;;;;;;;;;;12.70;92.80;;;;;;5067507;28;20017;-64
2023/01/16 10:04:55;;;;;;;38.88;29.80;;;12.90;92.00;;;;;;5056132;28;20481;-65
2023/01/16 10:07:38;;;;;;;43.67;31.58;;;13.40;93.20;;;;;;5072035;28;20032;-66
2023/01/16 10:10:37;;;;;;;40.70;29.17;;;14.10;91.10;;;;;;5073928;28;20025;-67
2023/01/16 10:13:17;;;;;;;39.67;29.92;;;14.80;89.00;;;;;;5067799;28;20033;-64
2023/01/16 10:16:06;;;;;;;29.67;24.23;;;15.30;81.80;;;;;;5056105;28;20491;-68
2023/01/16 10:18:32;;;;;;;30.50;23.27;;;15.60;77.00;;;;;;5065305;28;20059;-60
2023/01/16 10:21:14;;;;;;;22.38;18.55;;;15.70;76.90;;;;;;5059822;28;20068;-62
2023/01/16 10:24:01;;;;;;;17.60;15.43;;;15.70;74.50;;;;;;5066126;28;20024;-64
2023/01/16 10:26:28;;;;;;;15.35;11.90;;;15.50;71.90;;;;;;5054366;28;20029;-64
2023/01/16 10:29:09;;;;;;;18.50;15.27;;;15.10;72.50;;;;;;5058588;28;20017;-68
2023/01/16 10:31:42;;;;;;;20.42;15.80;;;14.90;72.30;;;;;;5071405;28;20111;-66
2023/01/16 10:34:32;;;;;;;22.13;16.25;;;14.90;73.20;;;;;;5052255;28;20471;-62
2023/01/16 10:37:00;;;;;;;18.48;15.25;;;14.80;73.40;;;;;;5057762;28;20120;-63
2023/01/16 10:39:35;;;;;;;23.98;18.90;;;14.80;74.20;;;;;;5054421;28;20044;-63
2023/01/16 10:53:55;;;;;;;23.52;18.15;;;14.70;78.80;;;;;;5071989;28;20032;-66
2023/01/16 10:56:20;;;;;;;15.00;12.38;;;14.90;77.60;;;;;;5072523;28;20020;-66
2023/01/16 10:58:46;;;;;;;7.10;5.90;;;14.90;73.50;;;;;;5072846;28;20029;-60
2023/01/16 11:01:16;;;;;;;7.82;6.07;;;14.90;71.80;;;;;;5071754;28;20084;-67
2023/01/16 11:03:46;;;;;;;4.18;3.30;;;14.90;71.10;;;;;;5073142;28;20031;-67
2023/01/16 11:06:13;;;;;;;4.82;4.28;;;14.90;69.60;;;;;;5073849;28;20017;-66
2023/01/16 11:08:45;;;;;;;17.30;12.02;;;15.00;71.20;;;;;;5073620;28;20099;-65
2023/01/16 11:20:19;;;;;;;2.40;2.20;;;15.70;68.40;;;;;;5073733;28;20043;-67
2023/01/16 11:22:48;;;;;;;2.40;2.20;;;15.60;68.30;;;;;;5071707;28;20496;-64
2023/01/16 11:25:18;;;;;;;7.97;6.25;;;15.60;67.70;;;;;;5073192;28;20028;-71
2023/01/16 11:27:45;;;;;;;4.32;3.78;;;15.70;68.20;;;;;;5073617;28;20025;-67
2023/01/16 11:30:26;;;;;;;3.55;3.25;;;15.60;68.20;;;;;;5073367;28;20024;-60
2023/01/16 11:32:54;;;;;;;2.90;2.67;;;15.70;68.80;;;;;;5072990;28;20030;-68
2023/01/16 11:35:24;;;;;;;5.15;4.30;;;15.80;68.00;;;;;;5072101;28;20025;-65
2023/01/16 11:37:52;;;;;;;4.70;4.20;;;15.70;68.80;;;;;;5073185;28;20025;-67
2023/01/16 11:40:23;;;;;;;3.70;3.35;;;15.70;67.10;;;;;;5072844;28;20039;-67
2023/01/16 11:46:02;;;;;;;4.32;3.92;;;15.50;70.90;;;;;;5072897;28;20445;-62
2023/01/16 11:48:39;;;;;;;4.97;4.47;;;15.40;69.50;;;;;;5072343;28;20079;-64
2023/01/16 11:51:09;;;;;;;6.05;4.90;;;15.50;71.70;;;;;;5072996;28;20105;-70
2023/01/16 11:53:35;;;;;;;6.05;5.28;;;15.40;70.00;;;;;;5072994;28;20021;-67
2023/01/16 11:56:13;;;;;;;9.63;6.47;;;15.40;70.70;;;;;;5073010;28;20023;-70
2023/01/16 11:58:55;;;;;;;6.90;6.20;;;15.30;71.00;;;;;;5073123;28;20025;-62
2023/01/16 12:05:53;;;;;;;16.98;11.50;;;15.20;70.60;;;;;;5072697;28;20497;-66
2023/01/16 12:07:53;;;;;;;15.90;11.05;;;15.10;71.60;;;;;;5072803;28;20558;-69
2023/01/16 12:11:03;;;;;;;13.75;9.93;;;15.10;73.30;;;;;;5072898;28;20025;-63
2023/01/16 12:16:55;;;;;;;10.43;7.78;;;15.10;72.00;;;;;;5019407;28;20391;-68
2023/01/16 12:19:27;;;;;;;9.13;7.40;;;15.20;73.80;;;;;;5057445;28;20071;-65
2023/01/16 12:22:34;;;;;;;15.50;12.25;;;15.10;73.80;;;;;;5059421;28;20433;-65
2023/01/16 12:25:17;;;;;;;42.78;31.23;;;15.00;81.80;;;;;;5040788;28;20026;-63
2023/01/16 12:27:49;;;;;;;96.28;62.83;;;15.00;87.00;;;;;;5065884;28;20039;-65
2023/01/16 12:30:36;;;;;;;81.28;55.30;;;14.80;91.20;;;;;;5076764;28;20482;-65
2023/01/16 12:33:42;;;;;;;81.25;60.53;;;14.60;94.10;;;;;;5075696;28;20060;-66
2023/01/16 12:36:44;;;;;;;60.38;45.90;;;14.40;95.20;;;;;;5076392;28;20013;-63
2023/01/16 12:39:16;;;;;;;67.88;52.45;;;14.40;94.90;;;;;;5076221;28;20024;-64
2023/01/16 12:45:14;;;;;;;39.22;31.17;;;14.30;97.50;;;;;;5076754;28;20517;-68
2023/01/16 12:48:07;;;;;;;27.88;21.88;;;14.30;97.10;;;;;;5075772;28;20055;-63
2023/01/16 12:50:42;;;;;;;22.73;17.33;;;14.20;96.90;;;;;;5074583;28;20066;-63
2023/01/16 12:53:32;;;;;;;23.38;16.08;;;14.10;97.70;;;;;;5076122;28;20027;-67
2023/01/16 12:56:07;;;;;;;28.05;17.63;;;14.00;97.90;;;;;;5076151;28;20028;-63
2023/01/16 12:58:38;;;;;;;29.95;17.92;;;14.00;99.20;;;;;;5076354;28;20494;-62
2023/01/16 13:01:21;;;;;;;26.15;15.82;;;13.90;99.60;;;;;;5075868;28;20032;-63
2023/01/16 13:04:15;;;;;;;29.37;17.93;;;13.80;99.90;;;;;;5069469;28;20029;-69
2023/01/16 13:06:47;;;;;;;23.25;15.63;;;13.60;99.90;;;;;;5055886;28;20083;-67
2023/01/16 13:09:23;;;;;;;19.33;14.47;;;13.40;99.90;;;;;;5055802;28;20025;-65
2023/01/16 13:14:49;;;;;;;14.73;10.93;;;13.30;99.90;;;;;;5055979;28;20067;-70
2023/01/16 13:17:27;;;;;;;12.60;10.38;;;13.20;99.90;;;;;;5055578;28;20029;-66
2023/01/16 13:19:54;;;;;;;9.68;8.68;;;12.90;99.90;;;;;;5055898;28;20535;-66
2023/01/16 13:22:29;;;;;;;9.45;8.45;;;12.30;99.90;;;;;;5055877;28;20028;-62
2023/01/16 13:25:19;;;;;;;12.43;11.10;;;12.10;99.90;;;;;;5055795;28;20017;-63
2023/01/16 13:27:54;;;;;;;18.77;14.80;;;11.90;99.90;;;;;;5055661;28;20074;-64
2023/01/16 13:30:20;;;;;;;11.65;10.45;;;11.80;99.90;;;;;;5055693;28;20029;-62
2023/01/16 13:32:56;;;;;;;10.27;7.95;;;11.70;99.90;;;;;;5055690;28;20029;-72
2023/01/16 13:35:53;;;;;;;9.05;8.15;;;11.70;99.90;;;;;;5054752;28;20032;-60
2023/01/16 13:38:40;;;;;;;8.82;7.10;;;11.80;99.90;;;;;;5053379;28;20021;-68
2023/01/16 13:41:25;;;;;;;13.10;10.88;;;11.70;99.90;;;;;;5053337;28;20252;-65
2023/01/16 13:46:46;;;;;;;42.95;33.08;;;11.40;99.90;;;;;;5054552;28;20047;-60
2023/01/16 13:49:24;;;;;;;37.75;29.20;;;11.10;99.90;;;;;;5054011;28;20094;-70
2023/01/16 13:51:52;;;;;;;32.17;26.30;;;10.90;99.90;;;;;;5054249;28;20055;-59
2023/01/16 13:54:23;;;;;;;35.72;25.73;;;10.60;99.90;;;;;;5054844;28;20505;-68
2023/01/16 13:57:02;;;;;;;28.05;21.17;;;10.40;99.90;;;;;;5054923;28;20055;-61
2023/01/16 13:59:41;;;;;;;25.55;21.52;;;10.30;99.90;;;;;;5054936;28;20029;-64
2023/01/16 14:02:40;;;;;;;21.55;18.52;;;10.30;99.90;;;;;;5055189;28;20044;-68
2023/01/16 14:05:14;;;;;;;26.52;21.55;;;10.20;99.90;;;;;;5055161;28;20025;-68